Virgie Cenac — WDC2765 — position and weather

sailwx.info

Track history (hours):
 
Tides and Currents Weather Stations Pressure Air Temp Water Temp Dewpoint Dewpoint Depression Visibility Wind Speed Wind Dir Waves Ship Positions

Virgie Cenac

Owner: Cenac Marine Transportation, Inc., Houma, LA. More information available from US FCC via Universal Licensing System and Coast Guard Vessel Documentation Center.

Last reported at 2016-Jan-07 13:15 UTC. Time now 2016-Feb-14 08:11 UTC.
Position N 30°32' W 088°07'.
Warning: this ship's position is 37 days out of date.

Length 18 m; draft 3 m.

Type: Towing. MMSI: 366997430.

Date/timePositionNaut miles runAvg speedWind from/ knotsBaromVisibWave heightAir tempDewpointWater temp
2016-Jan-07 13:15N 30°32' W 088°07'0 0.0
2016-Jan-07 04:27N 30°32' W 088°07'0 0.0
2016-Jan-05 15:25N 30°32' W 088°07'  
2015-Dec-30 05:30N 29°34' W 090°30'4 4.1
2015-Dec-30 04:32N 29°34' W 090°35'4 3.9
2015-Dec-30 03:33N 29°36' W 090°39'3 3.3
2015-Dec-30 02:33N 29°36' W 090°43'4 3.6
2015-Dec-30 01:33N 29°33' W 090°45'0 0.3
2015-Dec-30 00:33N 29°33' W 090°45'0 0.0
2015-Dec-29 23:33N 29°33' W 090°45'0 0.0
2015-Dec-29 22:33N 29°33' W 090°45'2 2.4
2015-Dec-29 21:33N 29°32' W 090°48'0 0.0
2015-Dec-29 01:10N 29°32' W 090°47'4 4.3
2015-Dec-29 00:20N 29°34' W 090°44'3 3.0
2015-Dec-28 23:30N 29°36' W 090°43'3 2.6
2015-Dec-28 22:31N 29°36' W 090°40'0 0.1
2015-Dec-28 21:30N 29°36' W 090°40'0 0.0
2015-Dec-28 20:22N 29°36' W 090°40'0 0.0
2015-Dec-28 19:33N 29°36' W 090°40'0 0.2
2015-Dec-28 18:33N 29°36' W 090°40'  
Track history (hours):
 
Tides and Currents Weather Stations Pressure Air Temp Water Temp Dewpoint Dewpoint Depression Visibility Wind Speed Wind Dir Waves Ship Positions

Virgie Cenac

Owner: Cenac Marine Transportation, Inc., Houma, LA. More information available from US FCC via Universal Licensing System and Coast Guard Vessel Documentation Center.

Last reported at 2016-Jan-07 13:15 UTC. Time now 2016-Feb-14 08:11 UTC.
Position N 30°32' W 088°07'.
Warning: this ship's position is 37 days out of date.

Length 18 m; draft 3 m.

Type: Towing. MMSI: 366997430.

Date/timePositionNaut miles runAvg speedWind from/ knotsBaromVisibWave heightAir tempDewpointWater temp
2016-Jan-07 13:15N 30°32' W 088°07'0 0.0
2016-Jan-07 04:27N 30°32' W 088°07'0 0.0
2016-Jan-05 15:25N 30°32' W 088°07'  
2015-Dec-30 05:30N 29°34' W 090°30'4 4.1
2015-Dec-30 04:32N 29°34' W 090°35'4 3.9
2015-Dec-30 03:33N 29°36' W 090°39'3 3.3
2015-Dec-30 02:33N 29°36' W 090°43'4 3.6
2015-Dec-30 01:33N 29°33' W 090°45'0 0.3
2015-Dec-30 00:33N 29°33' W 090°45'0 0.0
2015-Dec-29 23:33N 29°33' W 090°45'0 0.0
2015-Dec-29 22:33N 29°33' W 090°45'2 2.4
2015-Dec-29 21:33N 29°32' W 090°48'0 0.0
2015-Dec-29 01:10N 29°32' W 090°47'4 4.3
2015-Dec-29 00:20N 29°34' W 090°44'3 3.0
2015-Dec-28 23:30N 29°36' W 090°43'3 2.6
2015-Dec-28 22:31N 29°36' W 090°40'0 0.1
2015-Dec-28 21:30N 29°36' W 090°40'0 0.0
2015-Dec-28 20:22N 29°36' W 090°40'0 0.0
2015-Dec-28 19:33N 29°36' W 090°40'0 0.2
2015-Dec-28 18:33N 29°36' W 090°40'  

Dump ship's entire track history